sensor_id;sensor_type;location;lat;lon;timestamp;pressure;altitude;pressure_sealevel;temperature;humidity
11605;BME280;5858;43.076;25.626;2023-05-11T00:00:39;99653.25;;;9.79;78.69
11605;BME280;5858;43.076;25.626;2023-05-11T00:03:07;99644.03;;;9.90;78.92
11605;BME280;5858;43.076;25.626;2023-05-11T00:05:34;99700.16;;;10.23;79.55
11605;BME280;5858;43.076;25.626;2023-05-11T00:08:02;99704.47;;;10.16;77.47
11605;BME280;5858;43.076;25.626;2023-05-11T00:10:29;99678.13;;;10.04;78.42
11605;BME280;5858;43.076;25.626;2023-05-11T00:12:56;99635.06;;;9.75;78.35
11605;BME280;5858;43.076;25.626;2023-05-11T00:15:24;99598.88;;;9.48;77.55
11605;BME280;5858;43.076;25.626;2023-05-11T00:17:51;99550.50;;;9.19;77.82
11605;BME280;5858;43.076;25.626;2023-05-11T00:20:19;99502.47;;;8.86;78.19
11605;BME280;5858;43.076;25.626;2023-05-11T00:22:48;99610.72;;;9.29;78.37
11605;BME280;5858;43.076;25.626;2023-05-11T00:25:23;99564.03;;;9.01;78.68
11605;BME280;5858;43.076;25.626;2023-05-11T00:27:55;99520.81;;;8.89;77.67
11605;BME280;5858;43.076;25.626;2023-05-11T00:30:23;99709.03;;;10.07;78.40
11605;BME280;5858;43.076;25.626;2023-05-11T00:32:50;99625.59;;;9.48;76.99
11605;BME280;5858;43.076;25.626;2023-05-11T00:35:19;99706.72;;;9.96;77.28
11605;BME280;5858;43.076;25.626;2023-05-11T00:37:46;99688.69;;;9.73;77.53
11605;BME280;5858;43.076;25.626;2023-05-11T00:40:13;99715.72;;;9.95;77.71
11605;BME280;5858;43.076;25.626;2023-05-11T00:42:41;99576.88;;;9.05;77.74
11605;BME280;5858;43.076;25.626;2023-05-11T00:45:08;99525.34;;;8.64;76.89
11605;BME280;5858;43.076;25.626;2023-05-11T00:47:35;99661.16;;;9.49;77.80
11605;BME280;5858;43.076;25.626;2023-05-11T00:50:03;99568.69;;;8.82;76.34
11605;BME280;5858;43.076;25.626;2023-05-11T00:52:33;99605.91;;;9.00;76.95
11605;BME280;5858;43.076;25.626;2023-05-11T00:55:00;99705.19;;;9.44;76.64
11605;BME280;5858;43.076;25.626;2023-05-11T00:57:27;99530.63;;;8.40;77.59
11605;BME280;5858;43.076;25.626;2023-05-11T00:59:59;99704.56;;;9.59;77.33
11605;BME280;5858;43.076;25.626;2023-05-11T01:02:28;99526.63;;;8.36;76.99
11605;BME280;5858;43.076;25.626;2023-05-11T01:04:55;99559.97;;;8.48;77.88
11605;BME280;5858;43.076;25.626;2023-05-11T01:07:27;99708.34;;;9.15;78.96
11605;BME280;5858;43.076;25.626;2023-05-11T01:10:04;99700.19;;;9.17;79.47
11605;BME280;5858;43.076;25.626;2023-05-11T01:12:37;99717.03;;;9.18;79.81
11605;BME280;5858;43.076;25.626;2023-05-11T01:15:10;99724.22;;;9.17;78.99
11605;BME280;5858;43.076;25.626;2023-05-11T01:17:43;99603.38;;;8.24;79.50
11605;BME280;5858;43.076;25.626;2023-05-11T01:20:16;99618.94;;;8.37;79.67
11605;BME280;5858;43.076;25.626;2023-05-11T01:22:55;99684.72;;;8.62;80.47
11605;BME280;5858;43.076;25.626;2023-05-11T01:25:47;99581.31;;;8.06;79.77
11605;BME280;5858;43.076;25.626;2023-05-11T01:28:48;99707.75;;;8.71;82.26
11605;BME280;5858;43.076;25.626;2023-05-11T01:31:20;99712.13;;;8.89;82.02
11605;BME280;5858;43.076;25.626;2023-05-11T01:33:53;99623.59;;;8.35;81.46
11605;BME280;5858;43.076;25.626;2023-05-11T01:36:33;99565.44;;;7.96;81.57
11605;BME280;5858;43.076;25.626;2023-05-11T01:39:04;99701.84;;;9.02;81.83
11605;BME280;5858;43.076;25.626;2023-05-11T01:41:34;99704.84;;;9.07;80.99
11605;BME280;5858;43.076;25.626;2023-05-11T01:44:07;99677.25;;;8.90;80.20
11605;BME280;5858;43.076;25.626;2023-05-11T01:46:37;99718.69;;;9.10;79.71
11605;BME280;5858;43.076;25.626;2023-05-11T01:49:06;99666.25;;;8.93;80.29
11605;BME280;5858;43.076;25.626;2023-05-11T01:51:35;99636.72;;;8.78;79.77
11605;BME280;5858;43.076;25.626;2023-05-11T01:54:05;99693.19;;;9.24;79.62
11605;BME280;5858;43.076;25.626;2023-05-11T01:56:36;99694.19;;;9.15;79.18
11605;BME280;5858;43.076;25.626;2023-05-11T01:59:04;99672.25;;;8.79;80.67
11605;BME280;5858;43.076;25.626;2023-05-11T02:01:34;99611.56;;;8.31;81.09
11605;BME280;5858;43.076;25.626;2023-05-11T02:04:03;99671.03;;;8.65;81.68
11605;BME280;5858;43.076;25.626;2023-05-11T02:06:33;99659.88;;;8.70;81.85
11605;BME280;5858;43.076;25.626;2023-05-11T02:09:01;99702.63;;;8.94;81.65
11605;BME280;5858;43.076;25.626;2023-05-11T02:11:29;99587.22;;;8.26;82.32
11605;BME280;5858;43.076;25.626;2023-05-11T02:13:57;99617.09;;;8.37;82.43
11605;BME280;5858;43.076;25.626;2023-05-11T02:16:25;99701.16;;;9.00;82.59
11605;BME280;5858;43.076;25.626;2023-05-11T02:18:54;99689.94;;;8.88;83.11
11605;BME280;5858;43.076;25.626;2023-05-11T02:21:26;99547.41;;;7.82;83.05
11605;BME280;5858;43.076;25.626;2023-05-11T02:23:53;99655.06;;;8.73;83.11
11605;BME280;5858;43.076;25.626;2023-05-11T02:26:22;99642.69;;;8.64;83.21
11605;BME280;5858;43.076;25.626;2023-05-11T02:28:49;99654.06;;;8.74;83.13
11605;BME280;5858;43.076;25.626;2023-05-11T02:31:18;99662.38;;;8.63;83.28
11605;BME280;5858;43.076;25.626;2023-05-11T02:33:48;99658.63;;;8.48;84.45
11605;BME280;5858;43.076;25.626;2023-05-11T02:36:19;99528.00;;;7.64;84.38
11605;BME280;5858;43.076;25.626;2023-05-11T02:38:49;99693.38;;;8.64;85.38
11605;BME280;5858;43.076;25.626;2023-05-11T02:41:23;99682.84;;;8.29;86.62
11605;BME280;5858;43.076;25.626;2023-05-11T02:43:53;99511.25;;;7.11;87.02
11605;BME280;5858;43.076;25.626;2023-05-11T02:46:25;99649.16;;;7.85;86.74
11605;BME280;5858;43.076;25.626;2023-05-11T02:48:56;99688.13;;;8.12;86.48
11605;BME280;5858;43.076;25.626;2023-05-11T02:51:27;99710.88;;;8.59;84.42
11605;BME280;5858;43.076;25.626;2023-05-11T02:53:58;99710.03;;;8.58;85.08
11605;BME280;5858;43.076;25.626;2023-05-11T02:56:26;99591.72;;;7.91;84.95
11605;BME280;5858;43.076;25.626;2023-05-11T02:58:54;99518.84;;;7.32;85.34
11605;BME280;5858;43.076;25.626;2023-05-11T03:01:22;99622.19;;;7.88;85.93
11605;BME280;5858;43.076;25.626;2023-05-11T03:03:49;99629.81;;;7.83;86.17
11605;BME280;5858;43.076;25.626;2023-05-11T03:06:17;99668.63;;;8.12;86.28
11605;BME280;5858;43.076;25.626;2023-05-11T03:08:44;99609.03;;;7.87;86.12
11605;BME280;5858;43.076;25.626;2023-05-11T03:11:13;99639.56;;;8.01;86.61
11605;BME280;5858;43.076;25.626;2023-05-11T03:13:43;99652.66;;;8.20;86.34
11605;BME280;5858;43.076;25.626;2023-05-11T03:16:10;99705.84;;;8.56;83.74
11605;BME280;5858;43.076;25.626;2023-05-11T03:18:38;99727.38;;;8.62;83.32
11605;BME280;5858;43.076;25.626;2023-05-11T03:21:05;99631.00;;;7.89;83.03
11605;BME280;5858;43.076;25.626;2023-05-11T03:23:34;99714.69;;;8.56;84.16
11605;BME280;5858;43.076;25.626;2023-05-11T03:26:03;99636.69;;;8.20;83.51
11605;BME280;5858;43.076;25.626;2023-05-11T03:28:34;99530.47;;;7.57;83.50
11605;BME280;5858;43.076;25.626;2023-05-11T03:31:02;99595.00;;;8.11;83.33
11605;BME280;5858;43.076;25.626;2023-05-11T03:33:30;99646.78;;;8.42;84.17
11605;BME280;5858;43.076;25.626;2023-05-11T03:35:59;99612.59;;;8.38;83.31
11605;BME280;5858;43.076;25.626;2023-05-11T03:38:29;99686.59;;;8.94;81.88
11605;BME280;5858;43.076;25.626;2023-05-11T03:40:57;99580.44;;;8.39;81.17
11605;BME280;5858;43.076;25.626;2023-05-11T03:43:27;99661.31;;;9.23;80.12
11605;BME280;5858;43.076;25.626;2023-05-11T03:45:58;99582.00;;;8.66;77.74
11605;BME280;5858;43.076;25.626;2023-05-11T03:48:26;99592.03;;;8.80;75.77
11605;BME280;5858;43.076;25.626;2023-05-11T03:50:54;99554.50;;;8.82;76.96
11605;BME280;5858;43.076;25.626;2023-05-11T03:53:22;99701.34;;;10.04;77.06
11605;BME280;5858;43.076;25.626;2023-05-11T03:55:49;99634.31;;;10.05;75.71
11605;BME280;5858;43.076;25.626;2023-05-11T03:58:17;99562.00;;;10.38;71.85
11605;BME280;5858;43.076;25.626;2023-05-11T04:00:45;99677.44;;;11.80;67.84
11605;BME280;5858;43.076;25.626;2023-05-11T04:03:14;99668.72;;;11.86;63.14
11605;BME280;5858;43.076;25.626;2023-05-11T04:05:41;99624.44;;;11.67;62.30
11605;BME280;5858;43.076;25.626;2023-05-11T04:08:08;99626.91;;;12.36;61.37
11605;BME280;5858;43.076;25.626;2023-05-11T04:10:39;99659.06;;;13.02;60.05
11605;BME280;5858;43.076;25.626;2023-05-11T04:13:06;99641.53;;;13.06;56.48
11605;BME280;5858;43.076;25.626;2023-05-11T04:15:33;99699.22;;;13.67;53.57
11605;BME280;5858;43.076;25.626;2023-05-11T04:18:02;99638.88;;;13.48;52.14
11605;BME280;5858;43.076;25.626;2023-05-11T04:20:30;99701.69;;;13.90;50.74
11605;BME280;5858;43.076;25.626;2023-05-11T04:22:57;99613.06;;;13.11;49.29
11605;BME280;5858;43.076;25.626;2023-05-11T04:25:24;99713.13;;;13.99;49.96
11605;BME280;5858;43.076;25.626;2023-05-11T04:27:51;99630.25;;;13.32;50.56
11605;BME280;5858;43.076;25.626;2023-05-11T04:30:27;99568.56;;;12.81;52.40
11605;BME280;5858;43.076;25.626;2023-05-11T04:32:54;99640.50;;;13.71;51.89
11605;BME280;5858;43.076;25.626;2023-05-11T04:35:39;99589.47;;;13.49;49.65
11605;BME280;5858;43.076;25.626;2023-05-11T04:38:06;99647.28;;;13.95;48.75
11605;BME280;5858;43.076;25.626;2023-05-11T04:40:34;99630.31;;;13.38;49.61
11605;BME280;5858;43.076;25.626;2023-05-11T04:43:10;99581.63;;;13.27;48.99
11605;BME280;5858;43.076;25.626;2023-05-11T05:13:35;99663.44;;;15.51;40.63
11605;BME280;5858;43.076;25.626;2023-05-11T05:16:03;99772.91;;;16.13;40.84
11605;BME280;5858;43.076;25.626;2023-05-11T05:18:33;99729.88;;;15.59;40.87
11605;BME280;5858;43.076;25.626;2023-05-11T05:21:10;99641.38;;;14.95;40.93
11605;BME280;5858;43.076;25.626;2023-05-11T05:23:43;99702.63;;;15.14;41.52
11605;BME280;5858;43.076;25.626;2023-05-11T05:26:11;99685.31;;;14.89;42.00
11605;BME280;5858;43.076;25.626;2023-05-11T05:28:46;99728.41;;;14.89;42.09
11605;BME280;5858;43.076;25.626;2023-05-11T05:31:13;99680.63;;;15.17;41.88
11605;BME280;5858;43.076;25.626;2023-05-11T05:33:41;99699.75;;;15.55;41.55
11605;BME280;5858;43.076;25.626;2023-05-11T05:36:09;99558.09;;;14.39;41.23
11605;BME280;5858;43.076;25.626;2023-05-11T05:38:56;99574.13;;;14.54;41.03
11605;BME280;5858;43.076;25.626;2023-05-11T05:41:35;99620.00;;;14.87;39.95
11605;BME280;5858;43.076;25.626;2023-05-11T05:44:14;99667.81;;;15.39;40.02
11605;BME280;5858;43.076;25.626;2023-05-11T05:46:54;99718.09;;;15.93;40.53
11605;BME280;5858;43.076;25.626;2023-05-11T05:49:24;99702.25;;;16.36;39.82
11605;BME280;5858;43.076;25.626;2023-05-11T05:51:54;99735.47;;;16.56;38.56
11605;BME280;5858;43.076;25.626;2023-05-11T05:54:27;99711.34;;;16.55;38.43
11605;BME280;5858;43.076;25.626;2023-05-11T05:57:06;99739.53;;;16.92;37.42
11605;BME280;5858;43.076;25.626;2023-05-11T06:03:44;99734.22;;;16.46;37.50
11605;BME280;5858;43.076;25.626;2023-05-11T06:07:06;99675.53;;;15.75;37.82
11605;BME280;5858;43.076;25.626;2023-05-11T06:09:48;99611.78;;;15.54;37.77
11605;BME280;5858;43.076;25.626;2023-05-11T06:12:21;99531.94;;;15.60;37.71
11605;BME280;5858;43.076;25.626;2023-05-11T06:15:15;99569.41;;;16.01;38.24
11605;BME280;5858;43.076;25.626;2023-05-11T06:17:49;99589.78;;;15.90;38.75
11605;BME280;5858;43.076;25.626;2023-05-11T06:20:33;99583.59;;;16.41;38.42
11605;BME280;5858;43.076;25.626;2023-05-11T06:23:00;99754.84;;;17.49;38.47
11605;BME280;5858;43.076;25.626;2023-05-11T06:25:35;99727.63;;;17.44;36.71
11605;BME280;5858;43.076;25.626;2023-05-11T11:21:14;99586.81;;;22.30;31.39
11605;BME280;5858;43.076;25.626;2023-05-11T12:05:00;99495.28;;;21.35;30.38
11605;BME280;5858;43.076;25.626;2023-05-11T12:07:54;99590.94;;;21.60;31.04
11605;BME280;5858;43.076;25.626;2023-05-11T12:10:37;99597.47;;;20.97;30.81
11605;BME280;5858;43.076;25.626;2023-05-11T12:20:09;99567.41;;;20.75;32.94
11605;BME280;5858;43.076;25.626;2023-05-11T12:23:33;99573.88;;;20.86;33.64
11605;BME280;5858;43.076;25.626;2023-05-11T12:26:53;99463.03;;;20.65;32.96
11605;BME280;5858;43.076;25.626;2023-05-11T12:53:35;99492.97;;;20.65;32.39
11605;BME280;5858;43.076;25.626;2023-05-11T12:56:14;99491.28;;;21.09;31.11
11605;BME280;5858;43.076;25.626;2023-05-11T12:58:49;99406.94;;;20.92;30.22
11605;BME280;5858;43.076;25.626;2023-05-11T13:01:43;99456.00;;;21.31;31.02
11605;BME280;5858;43.076;25.626;2023-05-11T13:04:28;99415.25;;;21.02;29.95
11605;BME280;5858;43.076;25.626;2023-05-11T13:07:09;99410.53;;;21.15;30.88
11605;BME280;5858;43.076;25.626;2023-05-11T13:10:00;99444.66;;;21.56;30.18
11605;BME280;5858;43.076;25.626;2023-05-11T13:19:40;99396.72;;;20.83;30.23
11605;BME280;5858;43.076;25.626;2023-05-11T13:22:13;99557.94;;;21.57;30.66
11605;BME280;5858;43.076;25.626;2023-05-11T13:25:03;99404.47;;;20.57;30.43
11605;BME280;5858;43.076;25.626;2023-05-11T13:27:42;99515.16;;;21.35;30.99
11605;BME280;5858;43.076;25.626;2023-05-11T14:43:20;99412.28;;;18.86;34.42
11605;BME280;5858;43.076;25.626;2023-05-11T14:46:07;99463.38;;;19.01;33.88
11605;BME280;5858;43.076;25.626;2023-05-11T15:04:30;99552.56;;;18.91;34.63
11605;BME280;5858;43.076;25.626;2023-05-11T15:06:57;99485.03;;;18.60;34.98
11605;BME280;5858;43.076;25.626;2023-05-11T15:09:26;99491.47;;;18.65;34.29
11605;BME280;5858;43.076;25.626;2023-05-11T15:11:56;99541.31;;;19.06;35.07
11605;BME280;5858;43.076;25.626;2023-05-11T15:14:26;99399.44;;;17.99;35.27
11605;BME280;5858;43.076;25.626;2023-05-11T15:16:55;99468.69;;;18.36;35.74
11605;BME280;5858;43.076;25.626;2023-05-11T15:19:25;99556.09;;;18.80;35.66
11605;BME280;5858;43.076;25.626;2023-05-11T15:21:56;99445.28;;;18.12;36.50
11605;BME280;5858;43.076;25.626;2023-05-11T15:24:23;99520.00;;;18.49;36.52
11605;BME280;5858;43.076;25.626;2023-05-11T15:26:50;99511.44;;;18.34;36.77
11605;BME280;5858;43.076;25.626;2023-05-11T15:29:17;99440.19;;;17.85;36.80
11605;BME280;5858;43.076;25.626;2023-05-11T15:31:46;99505.09;;;17.92;37.77
11605;BME280;5858;43.076;25.626;2023-05-11T15:34:13;99519.59;;;17.79;37.88
11605;BME280;5858;43.076;25.626;2023-05-11T15:36:43;99480.47;;;17.57;38.26
11605;BME280;5858;43.076;25.626;2023-05-11T15:39:14;99537.06;;;17.83;38.77
11605;BME280;5858;43.076;25.626;2023-05-11T15:41:48;99549.31;;;17.86;38.45
11605;BME280;5858;43.076;25.626;2023-05-11T15:44:23;99539.94;;;17.63;38.21
11605;BME280;5858;43.076;25.626;2023-05-11T15:46:51;99418.03;;;16.72;38.81
11605;BME280;5858;43.076;25.626;2023-05-11T15:49:18;99518.38;;;17.32;38.92
11605;BME280;5858;43.076;25.626;2023-05-11T15:51:45;99447.97;;;16.95;39.23
11605;BME280;5858;43.076;25.626;2023-05-11T15:54:15;99457.66;;;17.10;39.09
11605;BME280;5858;43.076;25.626;2023-05-11T15:56:42;99556.31;;;17.25;39.41
11605;BME280;5858;43.076;25.626;2023-05-11T15:59:10;99413.75;;;16.58;39.45
11605;BME280;5858;43.076;25.626;2023-05-11T16:01:38;99571.97;;;17.42;39.92
11605;BME280;5858;43.076;25.626;2023-05-11T16:04:05;99521.22;;;17.19;39.71
11605;BME280;5858;43.076;25.626;2023-05-11T16:06:36;99596.94;;;17.44;39.45
11605;BME280;5858;43.076;25.626;2023-05-11T16:09:04;99506.19;;;16.98;39.65
11605;BME280;5858;43.076;25.626;2023-05-11T16:11:44;99543.41;;;16.96;39.45
11605;BME280;5858;43.076;25.626;2023-05-11T16:14:11;99524.38;;;16.84;39.58
11605;BME280;5858;43.076;25.626;2023-05-11T16:16:39;99498.44;;;16.77;38.88
11605;BME280;5858;43.076;25.626;2023-05-11T16:19:20;99594.94;;;17.33;39.13
11605;BME280;5858;43.076;25.626;2023-05-11T16:21:51;99555.22;;;17.02;39.17
11605;BME280;5858;43.076;25.626;2023-05-11T16:24:18;99583.41;;;17.19;39.43
11605;BME280;5858;43.076;25.626;2023-05-11T16:26:50;99517.66;;;16.55;38.66
11605;BME280;5858;43.076;25.626;2023-05-11T16:29:18;99591.28;;;16.89;39.19
11605;BME280;5858;43.076;25.626;2023-05-11T16:31:47;99607.25;;;17.04;39.47
11605;BME280;5858;43.076;25.626;2023-05-11T16:34:16;99503.00;;;16.38;39.45
11605;BME280;5858;43.076;25.626;2023-05-11T16:36:43;99532.94;;;16.36;39.49
11605;BME280;5858;43.076;25.626;2023-05-11T16:39:10;99611.16;;;16.70;39.80
11605;BME280;5858;43.076;25.626;2023-05-11T16:41:38;99517.09;;;16.09;40.25
11605;BME280;5858;43.076;25.626;2023-05-11T16:44:11;99609.72;;;16.67;40.41
11605;BME280;5858;43.076;25.626;2023-05-11T16:46:39;99544.53;;;15.92;40.39
11605;BME280;5858;43.076;25.626;2023-05-11T16:49:06;99635.09;;;16.46;39.88
11605;BME280;5858;43.076;25.626;2023-05-11T16:51:33;99631.03;;;16.30;40.34
11605;BME280;5858;43.076;25.626;2023-05-11T16:54:02;99583.78;;;15.88;40.73
11605;BME280;5858;43.076;25.626;2023-05-11T16:56:41;99469.75;;;15.08;40.90
11605;BME280;5858;43.076;25.626;2023-05-11T16:59:20;99620.72;;;15.88;41.31
11605;BME280;5858;43.076;25.626;2023-05-11T17:01:57;99515.97;;;15.32;41.35
11605;BME280;5858;43.076;25.626;2023-05-11T17:04:24;99609.53;;;15.78;41.18
11605;BME280;5858;43.076;25.626;2023-05-11T17:06:52;99595.00;;;15.59;41.70
11605;BME280;5858;43.076;25.626;2023-05-11T17:09:34;99620.13;;;15.72;42.33
11605;BME280;5858;43.076;25.626;2023-05-11T17:12:06;99603.28;;;15.57;42.30
11605;BME280;5858;43.076;25.626;2023-05-11T17:14:48;99620.50;;;15.56;42.20
11605;BME280;5858;43.076;25.626;2023-05-11T17:17:19;99624.66;;;15.46;42.54
11605;BME280;5858;43.076;25.626;2023-05-11T17:19:46;99568.44;;;15.09;42.31
11605;BME280;5858;43.076;25.626;2023-05-11T17:22:46;99502.25;;;14.61;42.96
11605;BME280;5858;43.076;25.626;2023-05-11T17:25:19;99494.59;;;14.58;43.13
11605;BME280;5858;43.076;25.626;2023-05-11T17:28:10;99498.47;;;14.42;43.44
11605;BME280;5858;43.076;25.626;2023-05-11T17:30:45;99649.53;;;15.15;44.19
11605;BME280;5858;43.076;25.626;2023-05-11T17:33:19;99653.44;;;15.12;44.35
11605;BME280;5858;43.076;25.626;2023-05-11T17:41:43;99564.94;;;14.41;44.96
11605;BME280;5858;43.076;25.626;2023-05-11T17:44:10;99619.75;;;14.68;45.16
11605;BME280;5858;43.076;25.626;2023-05-11T17:46:39;99509.03;;;13.89;45.36
11605;BME280;5858;43.076;25.626;2023-05-11T17:49:13;99593.94;;;14.39;45.98
11605;BME280;5858;43.076;25.626;2023-05-11T17:54:42;99501.88;;;13.68;46.66
11605;BME280;5858;43.076;25.626;2023-05-11T17:57:29;99572.97;;;13.87;47.31
11605;BME280;5858;43.076;25.626;2023-05-11T18:00:37;99625.44;;;14.11;47.13
11605;BME280;5858;43.076;25.626;2023-05-11T18:06:04;99527.97;;;13.40;48.34
11605;BME280;5858;43.076;25.626;2023-05-11T18:08:32;99650.84;;;14.02;48.88
11605;BME280;5858;43.076;25.626;2023-05-11T18:13:59;99529.41;;;13.36;48.74
11605;BME280;5858;43.076;25.626;2023-05-11T18:16:44;99686.81;;;14.22;49.37
11605;BME280;5858;43.076;25.626;2023-05-11T18:40:42;99694.34;;;13.77;52.10
11605;BME280;5858;43.076;25.626;2023-05-11T18:43:12;99574.31;;;12.99;52.98
11605;BME280;5858;43.076;25.626;2023-05-11T18:45:40;99549.69;;;12.96;53.26
11605;BME280;5858;43.076;25.626;2023-05-11T18:48:08;99636.13;;;13.42;54.69
11605;BME280;5858;43.076;25.626;2023-05-11T18:50:37;99547.91;;;12.81;53.73
11605;BME280;5858;43.076;25.626;2023-05-11T18:53:12;99557.31;;;12.92;53.40
11605;BME280;5858;43.076;25.626;2023-05-11T18:59:45;99582.66;;;12.68;55.46
11605;BME280;5858;43.076;25.626;2023-05-11T19:10:38;99662.44;;;12.89;57.51
11605;BME280;5858;43.076;25.626;2023-05-11T19:12:38;99703.59;;;13.11;58.89
11605;BME280;5858;43.076;25.626;2023-05-11T19:26:09;99748.34;;;13.18;59.41
11605;BME280;5858;43.076;25.626;2023-05-11T19:36:04;99600.63;;;12.17;60.19
11605;BME280;5858;43.076;25.626;2023-05-11T19:45:12;99724.03;;;12.76;61.76
11605;BME280;5858;43.076;25.626;2023-05-11T19:52:05;99698.88;;;12.62;62.12
11605;BME280;5858;43.076;25.626;2023-05-11T19:58:01;99614.72;;;11.89;62.80
11605;BME280;5858;43.076;25.626;2023-05-11T20:00:51;99561.75;;;11.39;64.19
11605;BME280;5858;43.076;25.626;2023-05-11T20:03:19;99637.00;;;11.90;63.88
11605;BME280;5858;43.076;25.626;2023-05-11T20:09:14;99600.13;;;11.54;64.46
11605;BME280;5858;43.076;25.626;2023-05-11T20:11:53;99597.09;;;11.34;65.27
11605;BME280;5858;43.076;25.626;2023-05-11T20:14:32;99705.53;;;12.07;65.51
11605;BME280;5858;43.076;25.626;2023-05-11T20:17:13;99611.19;;;11.37;65.58
11605;BME280;5858;43.076;25.626;2023-05-11T20:30:28;99632.06;;;11.41;67.61
11605;BME280;5858;43.076;25.626;2023-05-11T20:37:15;99594.78;;;11.31;66.81
11605;BME280;5858;43.076;25.626;2023-05-11T20:40:20;99719.59;;;12.09;66.43
11605;BME280;5858;43.076;25.626;2023-05-11T20:43:09;99622.38;;;11.17;66.59
11605;BME280;5858;43.076;25.626;2023-05-11T21:16:17;99692.69;;;11.42;59.92
11605;BME280;5858;43.076;25.626;2023-05-11T22:31:26;99636.41;;;10.43;62.81
11605;BME280;5858;43.076;25.626;2023-05-11T22:44:52;99560.88;;;9.93;62.96
11605;BME280;5858;43.076;25.626;2023-05-11T22:54:31;99654.59;;;10.39;63.55
11605;BME280;5858;43.076;25.626;2023-05-11T22:57:07;99661.31;;;10.43;63.97
11605;BME280;5858;43.076;25.626;2023-05-11T23:00:16;99689.69;;;10.52;64.65
11605;BME280;5858;43.076;25.626;2023-05-11T23:03:34;99601.09;;;9.92;64.81
11605;BME280;5858;43.076;25.626;2023-05-11T23:06:18;99591.25;;;9.92;65.66
11605;BME280;5858;43.076;25.626;2023-05-11T23:09:06;99603.34;;;9.72;66.79
